sensor_id;sensor_type;location;lat;lon;timestamp;pressure;altitude;pressure_sealevel;temperature;humidity
32933;BME280;19444;50.518;10.870;2023-10-19T00:02:10;95083.97;;;7.01;100.00
32933;BME280;19444;50.518;10.870;2023-10-19T00:05:13;95073.72;;;6.82;100.00
32933;BME280;19444;50.518;10.870;2023-10-19T00:08:13;95070.72;;;6.83;100.00
32933;BME280;19444;50.518;10.870;2023-10-19T00:11:10;95063.69;;;6.88;100.00
32933;BME280;19444;50.518;10.870;2023-10-19T00:14:18;95058.19;;;6.84;100.00
32933;BME280;19444;50.518;10.870;2023-10-19T00:17:15;95055.56;;;6.75;100.00
32933;BME280;19444;50.518;10.870;2023-10-19T00:20:12;95051.97;;;6.71;100.00
32933;BME280;19444;50.518;10.870;2023-10-19T00:23:32;95054.25;;;6.90;100.00
32933;BME280;19444;50.518;10.870;2023-10-19T00:26:29;95037.19;;;6.91;100.00
32933;BME280;19444;50.518;10.870;2023-10-19T00:29:27;95048.47;;;6.88;100.00
32933;BME280;19444;50.518;10.870;2023-10-19T00:32:30;95040.47;;;6.97;100.00
32933;BME280;19444;50.518;10.870;2023-10-19T00:35:27;95044.03;;;7.01;100.00
32933;BME280;19444;50.518;10.870;2023-10-19T00:38:25;95049.59;;;6.87;100.00
32933;BME280;19444;50.518;10.870;2023-10-19T00:41:36;95037.31;;;6.95;100.00
32933;BME280;19444;50.518;10.870;2023-10-19T00:44:34;95029.19;;;6.91;100.00
32933;BME280;19444;50.518;10.870;2023-10-19T00:47:45;95026.72;;;6.86;100.00
32933;BME280;19444;50.518;10.870;2023-10-19T00:50:43;95023.50;;;7.01;100.00
32933;BME280;19444;50.518;10.870;2023-10-19T00:53:41;95012.16;;;6.83;100.00
32933;BME280;19444;50.518;10.870;2023-10-19T00:56:41;95012.44;;;6.91;100.00
32933;BME280;19444;50.518;10.870;2023-10-19T00:59:44;95008.13;;;7.07;100.00
32933;BME280;19444;50.518;10.870;2023-10-19T01:02:50;95000.19;;;6.98;100.00
32933;BME280;19444;50.518;10.870;2023-10-19T01:05:49;94999.84;;;6.70;100.00
32933;BME280;19444;50.518;10.870;2023-10-19T01:08:47;94991.66;;;6.75;100.00
32933;BME280;19444;50.518;10.870;2023-10-19T01:11:44;94988.97;;;6.84;100.00
32933;BME280;19444;50.518;10.870;2023-10-19T01:18:04;94986.66;;;6.74;100.00
32933;BME280;19444;50.518;10.870;2023-10-19T01:21:04;94983.28;;;6.56;100.00
32933;BME280;19444;50.518;10.870;2023-10-19T01:24:09;94987.63;;;6.69;100.00
32933;BME280;19444;50.518;10.870;2023-10-19T01:27:09;94984.38;;;6.93;100.00
32933;BME280;19444;50.518;10.870;2023-10-19T01:30:06;94991.28;;;6.85;100.00
32933;BME280;19444;50.518;10.870;2023-10-19T01:33:06;94976.06;;;6.95;100.00
32933;BME280;19444;50.518;10.870;2023-10-19T01:36:11;94980.72;;;6.77;100.00
32933;BME280;19444;50.518;10.870;2023-10-19T01:39:11;94980.16;;;6.92;100.00
32933;BME280;19444;50.518;10.870;2023-10-19T01:42:08;94974.03;;;6.92;100.00
32933;BME280;19444;50.518;10.870;2023-10-19T01:45:07;94971.13;;;6.76;100.00
32933;BME280;19444;50.518;10.870;2023-10-19T01:48:04;94962.50;;;6.88;100.00
32933;BME280;19444;50.518;10.870;2023-10-19T01:51:05;94976.06;;;6.95;100.00
32933;BME280;19444;50.518;10.870;2023-10-19T01:54:02;94973.56;;;6.98;100.00
32933;BME280;19444;50.518;10.870;2023-10-19T01:56:59;94966.38;;;6.90;100.00
32933;BME280;19444;50.518;10.870;2023-10-19T01:59:56;94964.41;;;6.78;100.00
32933;BME280;19444;50.518;10.870;2023-10-19T02:02:53;94960.50;;;6.76;100.00
32933;BME280;19444;50.518;10.870;2023-10-19T02:06:01;94954.94;;;6.90;100.00
32933;BME280;19444;50.518;10.870;2023-10-19T02:09:12;94943.97;;;6.91;100.00
32933;BME280;19444;50.518;10.870;2023-10-19T02:12:20;94944.25;;;6.69;100.00
32933;BME280;19444;50.518;10.870;2023-10-19T02:15:18;94926.63;;;6.85;100.00
32933;BME280;19444;50.518;10.870;2023-10-19T02:18:15;94921.84;;;6.99;100.00
32933;BME280;19444;50.518;10.870;2023-10-19T02:21:14;94918.91;;;6.92;100.00
32933;BME280;19444;50.518;10.870;2023-10-19T02:24:11;94905.53;;;7.01;100.00
32933;BME280;19444;50.518;10.870;2023-10-19T02:27:11;94895.66;;;7.01;100.00
32933;BME280;19444;50.518;10.870;2023-10-19T02:30:22;94895.81;;;7.05;100.00
32933;BME280;19444;50.518;10.870;2023-10-19T02:33:21;94894.72;;;7.06;100.00
32933;BME280;19444;50.518;10.870;2023-10-19T02:36:19;94891.00;;;6.98;100.00
32933;BME280;19444;50.518;10.870;2023-10-19T02:39:16;94885.22;;;7.17;100.00
32933;BME280;19444;50.518;10.870;2023-10-19T02:42:14;94884.88;;;6.98;100.00
32933;BME280;19444;50.518;10.870;2023-10-19T02:45:11;94879.22;;;6.99;100.00
32933;BME280;19444;50.518;10.870;2023-10-19T02:48:08;94881.25;;;7.02;100.00
32933;BME280;19444;50.518;10.870;2023-10-19T02:51:08;94872.28;;;7.07;100.00
32933;BME280;19444;50.518;10.870;2023-10-19T02:54:08;94865.53;;;7.09;100.00
32933;BME280;19444;50.518;10.870;2023-10-19T02:57:05;94861.03;;;7.01;100.00
32933;BME280;19444;50.518;10.870;2023-10-19T03:00:06;94857.53;;;6.89;100.00
32933;BME280;19444;50.518;10.870;2023-10-19T03:03:10;94859.22;;;6.93;100.00
32933;BME280;19444;50.518;10.870;2023-10-19T03:06:07;94849.03;;;6.95;100.00
32933;BME280;19444;50.518;10.870;2023-10-19T03:09:05;94858.38;;;7.01;100.00
32933;BME280;19444;50.518;10.870;2023-10-19T03:12:10;94859.75;;;7.07;100.00
32933;BME280;19444;50.518;10.870;2023-10-19T03:15:07;94863.84;;;7.05;100.00
32933;BME280;19444;50.518;10.870;2023-10-19T03:18:05;94857.22;;;7.11;100.00
32933;BME280;19444;50.518;10.870;2023-10-19T03:21:03;94853.97;;;7.05;100.00
32933;BME280;19444;50.518;10.870;2023-10-19T03:24:00;94847.16;;;7.17;100.00
32933;BME280;19444;50.518;10.870;2023-10-19T03:27:10;94842.97;;;7.28;100.00
32933;BME280;19444;50.518;10.870;2023-10-19T03:30:13;94835.91;;;7.32;100.00
32933;BME280;19444;50.518;10.870;2023-10-19T03:33:12;94836.75;;;7.24;100.00
32933;BME280;19444;50.518;10.870;2023-10-19T03:36:09;94839.41;;;7.24;100.00
32933;BME280;19444;50.518;10.870;2023-10-19T03:39:10;94827.22;;;7.23;100.00
32933;BME280;19444;50.518;10.870;2023-10-19T03:42:11;94825.94;;;7.20;100.00
32933;BME280;19444;50.518;10.870;2023-10-19T03:45:10;94822.72;;;7.15;100.00
32933;BME280;19444;50.518;10.870;2023-10-19T03:48:10;94824.53;;;7.23;100.00
32933;BME280;19444;50.518;10.870;2023-10-19T03:51:07;94822.19;;;7.21;100.00
32933;BME280;19444;50.518;10.870;2023-10-19T03:54:08;94808.03;;;7.08;100.00
32933;BME280;19444;50.518;10.870;2023-10-19T03:57:19;94808.38;;;7.07;100.00
32933;BME280;19444;50.518;10.870;2023-10-19T04:00:26;94811.09;;;6.98;100.00
32933;BME280;19444;50.518;10.870;2023-10-19T04:03:25;94794.19;;;7.15;100.00
32933;BME280;19444;50.518;10.870;2023-10-19T04:06:27;94790.13;;;7.30;100.00
32933;BME280;19444;50.518;10.870;2023-10-19T04:09:25;94789.69;;;7.28;100.00
32933;BME280;19444;50.518;10.870;2023-10-19T04:12:27;94792.03;;;7.29;100.00
32933;BME280;19444;50.518;10.870;2023-10-19T04:15:28;94798.78;;;7.27;100.00
32933;BME280;19444;50.518;10.870;2023-10-19T04:18:31;94790.28;;;7.33;100.00
32933;BME280;19444;50.518;10.870;2023-10-19T04:21:30;94796.13;;;7.27;100.00
32933;BME280;19444;50.518;10.870;2023-10-19T04:24:27;94791.06;;;7.46;100.00
32933;BME280;19444;50.518;10.870;2023-10-19T04:27:24;94780.84;;;7.36;100.00
32933;BME280;19444;50.518;10.870;2023-10-19T04:30:21;94778.44;;;7.55;100.00
32933;BME280;19444;50.518;10.870;2023-10-19T04:33:24;94771.25;;;7.68;100.00
32933;BME280;19444;50.518;10.870;2023-10-19T04:36:24;94764.06;;;7.81;100.00
32933;BME280;19444;50.518;10.870;2023-10-19T04:39:22;94765.38;;;7.75;100.00
32933;BME280;19444;50.518;10.870;2023-10-19T04:42:19;94764.59;;;7.74;100.00
32933;BME280;19444;50.518;10.870;2023-10-19T04:45:19;94758.38;;;7.82;100.00
32933;BME280;19444;50.518;10.870;2023-10-19T04:48:16;94763.38;;;7.84;100.00
32933;BME280;19444;50.518;10.870;2023-10-19T04:51:13;94767.69;;;7.76;100.00
32933;BME280;19444;50.518;10.870;2023-10-19T04:54:10;94764.59;;;7.74;100.00
32933;BME280;19444;50.518;10.870;2023-10-19T04:57:07;94754.94;;;7.69;100.00
32933;BME280;19444;50.518;10.870;2023-10-19T05:00:05;94754.69;;;7.75;100.00
32933;BME280;19444;50.518;10.870;2023-10-19T05:03:02;94761.81;;;7.70;100.00
32933;BME280;19444;50.518;10.870;2023-10-19T05:05:59;94762.84;;;7.78;100.00
32933;BME280;19444;50.518;10.870;2023-10-19T05:08:56;94755.47;;;7.75;100.00
32933;BME280;19444;50.518;10.870;2023-10-19T05:11:54;94757.50;;;7.78;100.00
32933;BME280;19444;50.518;10.870;2023-10-19T05:14:50;94759.38;;;7.78;100.00
32933;BME280;19444;50.518;10.870;2023-10-19T05:17:47;94760.47;;;7.64;100.00
32933;BME280;19444;50.518;10.870;2023-10-19T05:20:45;94774.03;;;7.72;100.00
32933;BME280;19444;50.518;10.870;2023-10-19T05:23:42;94768.03;;;7.62;100.00
32933;BME280;19444;50.518;10.870;2023-10-19T05:26:39;94780.25;;;7.63;100.00
32933;BME280;19444;50.518;10.870;2023-10-19T05:29:36;94773.13;;;7.67;100.00
32933;BME280;19444;50.518;10.870;2023-10-19T05:32:33;94779.69;;;7.70;100.00
32933;BME280;19444;50.518;10.870;2023-10-19T05:35:30;94778.69;;;7.62;100.00
32933;BME280;19444;50.518;10.870;2023-10-19T05:38:28;94792.00;;;7.62;100.00
32933;BME280;19444;50.518;10.870;2023-10-19T05:41:25;94779.22;;;7.68;100.00
32933;BME280;19444;50.518;10.870;2023-10-19T05:44:23;94792.13;;;7.66;100.00
32933;BME280;19444;50.518;10.870;2023-10-19T05:47:22;94790.47;;;7.61;100.00
32933;BME280;19444;50.518;10.870;2023-10-19T05:50:19;94787.34;;;7.59;100.00
32933;BME280;19444;50.518;10.870;2023-10-19T05:53:16;94798.00;;;7.59;100.00
32933;BME280;19444;50.518;10.870;2023-10-19T05:56:15;94793.31;;;7.56;100.00
32933;BME280;19444;50.518;10.870;2023-10-19T05:59:13;94784.09;;;7.54;100.00
32933;BME280;19444;50.518;10.870;2023-10-19T06:02:11;94788.00;;;7.56;100.00
32933;BME280;19444;50.518;10.870;2023-10-19T06:05:08;94785.31;;;7.56;100.00
32933;BME280;19444;50.518;10.870;2023-10-19T06:08:05;94776.69;;;7.59;100.00
32933;BME280;19444;50.518;10.870;2023-10-19T06:11:02;94777.81;;;7.70;100.00
32933;BME280;19444;50.518;10.870;2023-10-19T06:14:04;94782.47;;;7.74;100.00
32933;BME280;19444;50.518;10.870;2023-10-19T06:17:04;94779.13;;;7.77;100.00
32933;BME280;19444;50.518;10.870;2023-10-19T06:20:01;94775.25;;;7.74;100.00
32933;BME280;19444;50.518;10.870;2023-10-19T06:22:59;94765.25;;;7.71;100.00
32933;BME280;19444;50.518;10.870;2023-10-19T06:26:12;94760.72;;;7.84;100.00
32933;BME280;19444;50.518;10.870;2023-10-19T06:29:09;94756.72;;;8.02;100.00
32933;BME280;19444;50.518;10.870;2023-10-19T06:32:06;94769.19;;;7.98;100.00
32933;BME280;19444;50.518;10.870;2023-10-19T06:35:04;94760.41;;;7.97;100.00
32933;BME280;19444;50.518;10.870;2023-10-19T06:38:03;94773.59;;;7.94;100.00
32933;BME280;19444;50.518;10.870;2023-10-19T06:41:00;94774.72;;;7.93;100.00
32933;BME280;19444;50.518;10.870;2023-10-19T06:43:59;94769.03;;;7.94;100.00
32933;BME280;19444;50.518;10.870;2023-10-19T06:46:58;94765.28;;;7.95;100.00
32933;BME280;19444;50.518;10.870;2023-10-19T06:49:55;94779.28;;;7.92;100.00
32933;BME280;19444;50.518;10.870;2023-10-19T06:52:52;94767.97;;;8.08;100.00
32933;BME280;19444;50.518;10.870;2023-10-19T06:55:51;94756.38;;;8.04;100.00
32933;BME280;19444;50.518;10.870;2023-10-19T06:58:48;94763.50;;;7.99;100.00
32933;BME280;19444;50.518;10.870;2023-10-19T07:01:46;94747.41;;;8.08;100.00
32933;BME280;19444;50.518;10.870;2023-10-19T07:04:43;94751.84;;;8.16;100.00
32933;BME280;19444;50.518;10.870;2023-10-19T07:07:41;94756.28;;;8.12;100.00
32933;BME280;19444;50.518;10.870;2023-10-19T07:10:38;94757.50;;;8.03;100.00
32933;BME280;19444;50.518;10.870;2023-10-19T07:13:35;94758.84;;;8.09;100.00
32933;BME280;19444;50.518;10.870;2023-10-19T07:16:32;94764.72;;;8.02;100.00
32933;BME280;19444;50.518;10.870;2023-10-19T07:19:29;94768.94;;;8.03;100.00
32933;BME280;19444;50.518;10.870;2023-10-19T07:22:26;94760.84;;;8.12;100.00
32933;BME280;19444;50.518;10.870;2023-10-19T07:25:23;94781.75;;;8.10;100.00
32933;BME280;19444;50.518;10.870;2023-10-19T07:28:23;94775.28;;;8.11;100.00
32933;BME280;19444;50.518;10.870;2023-10-19T07:31:23;94786.53;;;8.16;100.00
32933;BME280;19444;50.518;10.870;2023-10-19T07:34:20;94778.28;;;8.21;100.00
32933;BME280;19444;50.518;10.870;2023-10-19T07:37:22;94776.72;;;8.20;100.00
32933;BME280;19444;50.518;10.870;2023-10-19T07:40:19;94786.19;;;8.30;100.00
32933;BME280;19444;50.518;10.870;2023-10-19T07:43:17;94783.97;;;8.20;100.00
32933;BME280;19444;50.518;10.870;2023-10-19T07:46:14;94787.19;;;8.25;100.00
32933;BME280;19444;50.518;10.870;2023-10-19T07:49:11;94778.19;;;8.18;100.00
32933;BME280;19444;50.518;10.870;2023-10-19T07:52:11;94767.16;;;8.19;100.00
32933;BME280;19444;50.518;10.870;2023-10-19T07:55:08;94770.50;;;8.28;100.00
32933;BME280;19444;50.518;10.870;2023-10-19T07:58:05;94764.31;;;8.37;100.00
32933;BME280;19444;50.518;10.870;2023-10-19T08:01:03;94768.09;;;8.36;100.00
32933;BME280;19444;50.518;10.870;2023-10-19T08:04:02;94761.19;;;8.35;100.00
32933;BME280;19444;50.518;10.870;2023-10-19T08:06:59;94771.06;;;8.46;100.00
32933;BME280;19444;50.518;10.870;2023-10-19T08:09:56;94767.72;;;8.49;100.00
32933;BME280;19444;50.518;10.870;2023-10-19T08:12:55;94763.31;;;8.41;100.00
32933;BME280;19444;50.518;10.870;2023-10-19T08:15:52;94759.75;;;8.37;100.00
32933;BME280;19444;50.518;10.870;2023-10-19T08:18:49;94760.19;;;8.39;100.00
32933;BME280;19444;50.518;10.870;2023-10-19T08:21:52;94760.97;;;8.40;100.00
32933;BME280;19444;50.518;10.870;2023-10-19T08:24:49;94766.28;;;8.40;100.00
32933;BME280;19444;50.518;10.870;2023-10-19T08:27:49;94760.72;;;8.57;100.00
32933;BME280;19444;50.518;10.870;2023-10-19T08:30:47;94761.72;;;8.52;100.00
32933;BME280;19444;50.518;10.870;2023-10-19T08:33:54;94753.38;;;8.54;100.00
32933;BME280;19444;50.518;10.870;2023-10-19T08:36:51;94759.94;;;8.57;100.00
32933;BME280;19444;50.518;10.870;2023-10-19T08:39:48;94760.78;;;8.73;100.00
32933;BME280;19444;50.518;10.870;2023-10-19T08:42:47;94757.22;;;8.81;100.00
32933;BME280;19444;50.518;10.870;2023-10-19T08:45:45;94761.22;;;8.87;100.00
32933;BME280;19444;50.518;10.870;2023-10-19T08:48:43;94756.06;;;8.94;100.00
32933;BME280;19444;50.518;10.870;2023-10-19T08:51:46;94749.63;;;8.83;100.00
32933;BME280;19444;50.518;10.870;2023-10-19T08:54:43;94739.44;;;8.73;100.00
32933;BME280;19444;50.518;10.870;2023-10-19T08:57:40;94750.91;;;9.01;100.00
32933;BME280;19444;50.518;10.870;2023-10-19T09:03:44;94737.50;;;9.13;100.00
32933;BME280;19444;50.518;10.870;2023-10-19T09:06:42;94740.03;;;9.22;100.00
32933;BME280;19444;50.518;10.870;2023-10-19T09:09:39;94742.69;;;9.22;100.00
32933;BME280;19444;50.518;10.870;2023-10-19T09:12:40;94732.13;;;9.41;100.00
32933;BME280;19444;50.518;10.870;2023-10-19T09:15:37;94733.47;;;9.63;100.00
32933;BME280;19444;50.518;10.870;2023-10-19T09:18:34;94724.41;;;9.52;100.00
32933;BME280;19444;50.518;10.870;2023-10-19T09:21:32;94721.19;;;9.78;100.00
32933;BME280;19444;50.518;10.870;2023-10-19T09:24:29;94729.75;;;9.84;100.00
32933;BME280;19444;50.518;10.870;2023-10-19T09:27:28;94723.38;;;9.73;100.00
32933;BME280;19444;50.518;10.870;2023-10-19T09:30:25;94714.97;;;9.58;100.00
32933;BME280;19444;50.518;10.870;2023-10-19T09:33:23;94726.91;;;9.77;100.00
32933;BME280;19444;50.518;10.870;2023-10-19T09:36:21;94732.25;;;9.77;100.00
32933;BME280;19444;50.518;10.870;2023-10-19T09:39:22;94730.69;;;9.76;100.00
32933;BME280;19444;50.518;10.870;2023-10-19T09:42:24;94733.19;;;9.84;100.00
32933;BME280;19444;50.518;10.870;2023-10-19T09:45:27;94722.31;;;9.77;100.00
32933;BME280;19444;50.518;10.870;2023-10-19T09:48:27;94721.13;;;10.06;100.00
32933;BME280;19444;50.518;10.870;2023-10-19T09:51:24;94710.91;;;9.96;100.00
32933;BME280;19444;50.518;10.870;2023-10-19T09:54:30;94727.56;;;10.05;100.00
32933;BME280;19444;50.518;10.870;2023-10-19T09:57:44;94722.75;;;9.95;100.00
32933;BME280;19444;50.518;10.870;2023-10-19T10:00:45;94724.63;;;10.10;100.00
32933;BME280;19444;50.518;10.870;2023-10-19T10:03:50;94718.88;;;10.08;100.00
32933;BME280;19444;50.518;10.870;2023-10-19T10:09:48;94711.44;;;10.02;100.00
32933;BME280;19444;50.518;10.870;2023-10-19T10:12:46;94711.63;;;10.09;100.00
32933;BME280;19444;50.518;10.870;2023-10-19T10:15:43;94712.50;;;9.97;100.00
32933;BME280;19444;50.518;10.870;2023-10-19T10:18:42;94709.59;;;10.21;100.00
32933;BME280;19444;50.518;10.870;2023-10-19T10:22:07;94704.44;;;10.13;100.00
32933;BME280;19444;50.518;10.870;2023-10-19T10:25:26;94707.81;;;10.25;100.00
32933;BME280;19444;50.518;10.870;2023-10-19T10:28:27;94705.38;;;10.05;100.00
32933;BME280;19444;50.518;10.870;2023-10-19T10:31:25;94707.88;;;10.29;100.00
32933;BME280;19444;50.518;10.870;2023-10-19T10:37:37;94701.25;;;10.23;100.00
32933;BME280;19444;50.518;10.870;2023-10-19T10:40:45;94682.69;;;10.49;100.00
32933;BME280;19444;50.518;10.870;2023-10-19T10:43:56;94677.66;;;10.29;100.00
32933;BME280;19444;50.518;10.870;2023-10-19T10:46:54;94671.63;;;10.51;100.00
32933;BME280;19444;50.518;10.870;2023-10-19T10:49:55;94676.50;;;10.45;100.00
32933;BME280;19444;50.518;10.870;2023-10-19T10:52:52;94673.88;;;10.68;100.00
32933;BME280;19444;50.518;10.870;2023-10-19T10:55:53;94678.25;;;10.76;100.00
32933;BME280;19444;50.518;10.870;2023-10-19T10:58:51;94670.22;;;10.76;100.00
32933;BME280;19444;50.518;10.870;2023-10-19T11:01:48;94676.66;;;10.72;100.00
32933;BME280;19444;50.518;10.870;2023-10-19T11:04:45;94675.72;;;10.83;100.00
32933;BME280;19444;50.518;10.870;2023-10-19T11:08:15;94675.59;;;10.76;100.00
32933;BME280;19444;50.518;10.870;2023-10-19T11:11:18;94676.38;;;10.77;100.00
32933;BME280;19444;50.518;10.870;2023-10-19T11:14:15;94670.44;;;10.87;100.00
32933;BME280;19444;50.518;10.870;2023-10-19T11:17:13;94669.88;;;10.78;100.00
32933;BME280;19444;50.518;10.870;2023-10-19T11:20:22;94672.34;;;10.48;100.00
32933;BME280;19444;50.518;10.870;2023-10-19T11:23:19;94678.84;;;10.66;100.00
32933;BME280;19444;50.518;10.870;2023-10-19T11:26:20;94676.91;;;10.47;100.00
32933;BME280;19444;50.518;10.870;2023-10-19T11:29:17;94678.41;;;10.64;100.00
32933;BME280;19444;50.518;10.870;2023-10-19T11:32:14;94675.78;;;10.68;100.00
32933;BME280;19444;50.518;10.870;2023-10-19T11:35:11;94663.94;;;10.49;100.00
32933;BME280;19444;50.518;10.870;2023-10-19T11:38:09;94666.00;;;10.56;100.00
32933;BME280;19444;50.518;10.870;2023-10-19T11:41:06;94666.25;;;10.32;100.00
32933;BME280;19444;50.518;10.870;2023-10-19T11:44:04;94671.41;;;10.60;100.00
32933;BME280;19444;50.518;10.870;2023-10-19T11:47:01;94665.72;;;10.61;100.00
32933;BME280;19444;50.518;10.870;2023-10-19T11:49:59;94669.38;;;10.53;100.00
32933;BME280;19444;50.518;10.870;2023-10-19T11:52:56;94662.13;;;10.73;100.00
32933;BME280;19444;50.518;10.870;2023-10-19T11:55:53;94662.94;;;10.96;100.00
32933;BME280;19444;50.518;10.870;2023-10-19T11:58:50;94655.13;;;10.88;100.00
32933;BME280;19444;50.518;10.870;2023-10-19T12:01:47;94658.16;;;10.86;100.00
32933;BME280;19444;50.518;10.870;2023-10-19T12:04:44;94653.31;;;10.92;100.00
32933;BME280;19444;50.518;10.870;2023-10-19T12:07:42;94644.09;;;11.12;100.00
32933;BME280;19444;50.518;10.870;2023-10-19T12:10:42;94642.00;;;11.02;100.00
32933;BME280;19444;50.518;10.870;2023-10-19T12:13:39;94647.63;;;11.16;100.00
32933;BME280;19444;50.518;10.870;2023-10-19T12:16:36;94634.66;;;11.18;100.00
32933;BME280;19444;50.518;10.870;2023-10-19T12:19:33;94633.38;;;11.12;100.00
32933;BME280;19444;50.518;10.870;2023-10-19T12:22:30;94632.13;;;11.06;100.00
32933;BME280;19444;50.518;10.870;2023-10-19T12:25:35;94627.75;;;11.17;100.00
32933;BME280;19444;50.518;10.870;2023-10-19T12:28:52;94622.84;;;11.23;100.00
32933;BME280;19444;50.518;10.870;2023-10-19T12:31:49;94627.38;;;11.19;100.00
32933;BME280;19444;50.518;10.870;2023-10-19T12:34:46;94624.50;;;11.08;100.00
32933;BME280;19444;50.518;10.870;2023-10-19T12:37:46;94628.50;;;11.18;100.00
32933;BME280;19444;50.518;10.870;2023-10-19T12:40:50;94621.47;;;11.09;100.00
32933;BME280;19444;50.518;10.870;2023-10-19T12:43:51;94622.69;;;11.35;100.00
32933;BME280;19444;50.518;10.870;2023-10-19T12:46:49;94621.31;;;11.45;100.00
32933;BME280;19444;50.518;10.870;2023-10-19T12:49:50;94623.25;;;11.02;100.00
32933;BME280;19444;50.518;10.870;2023-10-19T12:52:50;94628.69;;;11.28;100.00
32933;BME280;19444;50.518;10.870;2023-10-19T12:55:53;94624.81;;;11.26;100.00
32933;BME280;19444;50.518;10.870;2023-10-19T12:58:50;94618.66;;;11.48;100.00
32933;BME280;19444;50.518;10.870;2023-10-19T13:01:47;94628.22;;;11.46;100.00
32933;BME280;19444;50.518;10.870;2023-10-19T13:04:48;94608.44;;;11.54;100.00
32933;BME280;19444;50.518;10.870;2023-10-19T13:07:45;94603.88;;;11.81;100.00
32933;BME280;19444;50.518;10.870;2023-10-19T13:10:44;94608.56;;;11.87;100.00
32933;BME280;19444;50.518;10.870;2023-10-19T13:13:41;94599.66;;;11.80;100.00
32933;BME280;19444;50.518;10.870;2023-10-19T13:16:38;94604.47;;;11.97;100.00
32933;BME280;19444;50.518;10.870;2023-10-19T13:19:35;94598.19;;;11.86;100.00
32933;BME280;19444;50.518;10.870;2023-10-19T13:22:34;94592.94;;;11.70;100.00
32933;BME280;19444;50.518;10.870;2023-10-19T13:25:31;94597.56;;;11.96;100.00
32933;BME280;19444;50.518;10.870;2023-10-19T13:28:46;94602.00;;;11.85;100.00
32933;BME280;19444;50.518;10.870;2023-10-19T13:31:44;94601.47;;;11.99;100.00
32933;BME280;19444;50.518;10.870;2023-10-19T13:34:46;94602.78;;;11.85;100.00
32933;BME280;19444;50.518;10.870;2023-10-19T13:37:43;94601.38;;;11.95;100.00
32933;BME280;19444;50.518;10.870;2023-10-19T13:40:41;94589.47;;;11.92;100.00
32933;BME280;19444;50.518;10.870;2023-10-19T13:43:39;94586.38;;;11.90;100.00
32933;BME280;19444;50.518;10.870;2023-10-19T13:46:37;94585.69;;;11.97;100.00
32933;BME280;19444;50.518;10.870;2023-10-19T13:49:34;94579.81;;;11.88;100.00
32933;BME280;19444;50.518;10.870;2023-10-19T13:52:32;94571.19;;;12.02;100.00
32933;BME280;19444;50.518;10.870;2023-10-19T13:55:29;94571.16;;;11.98;100.00
32933;BME280;19444;50.518;10.870;2023-10-19T13:58:26;94583.97;;;11.82;100.00
32933;BME280;19444;50.518;10.870;2023-10-19T14:01:23;94593.31;;;11.91;100.00
32933;BME280;19444;50.518;10.870;2023-10-19T14:04:22;94584.78;;;11.86;100.00
32933;BME280;19444;50.518;10.870;2023-10-19T14:07:20;94586.81;;;11.96;100.00
32933;BME280;19444;50.518;10.870;2023-10-19T14:10:17;94591.13;;;12.01;100.00
32933;BME280;19444;50.518;10.870;2023-10-19T14:13:16;94582.47;;;11.84;100.00
32933;BME280;19444;50.518;10.870;2023-10-19T14:16:13;94572.38;;;12.04;100.00
32933;BME280;19444;50.518;10.870;2023-10-19T14:19:10;94571.09;;;11.94;100.00
32933;BME280;19444;50.518;10.870;2023-10-19T14:22:07;94562.00;;;11.76;100.00
32933;BME280;19444;50.518;10.870;2023-10-19T14:25:05;94560.69;;;11.89;100.00
32933;BME280;19444;50.518;10.870;2023-10-19T14:28:04;94560.19;;;11.80;100.00
32933;BME280;19444;50.518;10.870;2023-10-19T14:31:04;94561.59;;;11.74;100.00
32933;BME280;19444;50.518;10.870;2023-10-19T14:34:01;94565.28;;;11.66;100.00
32933;BME280;19444;50.518;10.870;2023-10-19T14:36:59;94562.84;;;11.80;100.00
32933;BME280;19444;50.518;10.870;2023-10-19T14:39:56;94558.06;;;11.70;100.00
32933;BME280;19444;50.518;10.870;2023-10-19T14:42:54;94559.19;;;11.69;100.00
32933;BME280;19444;50.518;10.870;2023-10-19T14:45:51;94555.28;;;11.63;100.00
32933;BME280;19444;50.518;10.870;2023-10-19T14:48:48;94552.91;;;11.58;100.00
32933;BME280;19444;50.518;10.870;2023-10-19T14:51:45;94544.13;;;11.61;100.00
32933;BME280;19444;50.518;10.870;2023-10-19T14:54:42;94538.44;;;11.62;100.00
32933;BME280;19444;50.518;10.870;2023-10-19T14:57:41;94537.66;;;11.62;100.00
32933;BME280;19444;50.518;10.870;2023-10-19T15:00:38;94545.34;;;11.63;100.00
32933;BME280;19444;50.518;10.870;2023-10-19T15:03:39;94540.53;;;11.76;100.00
32933;BME280;19444;50.518;10.870;2023-10-19T15:06:36;94530.00;;;11.64;100.00
32933;BME280;19444;50.518;10.870;2023-10-19T15:09:35;94521.69;;;11.73;100.00
32933;BME280;19444;50.518;10.870;2023-10-19T15:12:33;94518.84;;;11.88;100.00
32933;BME280;19444;50.518;10.870;2023-10-19T15:15:30;94516.66;;;11.98;100.00
32933;BME280;19444;50.518;10.870;2023-10-19T15:18:27;94499.00;;;11.93;100.00
32933;BME280;19444;50.518;10.870;2023-10-19T15:21:24;94504.59;;;11.81;100.00
32933;BME280;19444;50.518;10.870;2023-10-19T15:24:21;94509.19;;;11.80;100.00
32933;BME280;19444;50.518;10.870;2023-10-19T15:27:18;94502.84;;;11.69;100.00
32933;BME280;19444;50.518;10.870;2023-10-19T15:30:15;94506.13;;;11.82;100.00
32933;BME280;19444;50.518;10.870;2023-10-19T15:33:14;94517.91;;;11.77;100.00
32933;BME280;19444;50.518;10.870;2023-10-19T15:36:11;94515.00;;;11.86;100.00
32933;BME280;19444;50.518;10.870;2023-10-19T15:39:08;94507.88;;;11.71;100.00
32933;BME280;19444;50.518;10.870;2023-10-19T15:42:07;94507.31;;;11.84;100.00
32933;BME280;19444;50.518;10.870;2023-10-19T15:45:05;94501.66;;;11.93;100.00